Time;durP1;ratioP1;P1;durP2;ratioP2;P2;SDS_P1;SDS_P2;PMS_P1;PMS_P2;Temp;Humidity;BMP_temperature;BMP_pressure;BME280_temperature;BME280_humidity;BME280_pressure;Samples;Min_cycle;Max_cycle;Signal;HPM_P1;HPM_P2
2023/01/16 00:03:58;;;;;;;3.13;1.80;;;7.40;99.90;;;;;;10410937;28;20285;-81
2023/01/16 00:09:00;;;;;;;8.20;2.83;;;6.90;99.90;;;;;;10423253;28;20238;-81
2023/01/16 00:14:03;;;;;;;4.60;2.40;;;6.90;99.90;;;;;;10452088;28;20265;-82
2023/01/16 00:19:06;;;;;;;4.40;2.73;;;6.40;99.90;;;;;;10416675;28;20301;-81
2023/01/16 00:24:08;;;;;;;5.80;3.07;;;7.30;99.90;;;;;;10419310;28;20258;-81
2023/01/16 00:29:11;;;;;;;5.57;3.07;;;7.30;99.90;;;;;;10449763;28;20238;-81
2023/01/16 00:34:13;;;;;;;4.53;3.60;;;7.80;99.90;;;;;;10437472;28;20232;-81
2023/01/16 00:39:16;;;;;;;3.97;2.60;;;7.90;99.90;;;;;;10408123;28;20263;-81
2023/01/16 00:44:19;;;;;;;6.87;3.50;;;8.80;99.90;;;;;;10408165;28;20273;-82
2023/01/16 00:49:22;;;;;;;5.37;2.97;;;8.80;99.90;;;;;;10407821;28;20231;-81
2023/01/16 00:54:24;;;;;;;7.33;3.00;;;8.90;99.90;;;;;;10408698;28;20250;-81
2023/01/16 00:59:27;;;;;;;3.80;2.40;;;8.60;99.90;;;;;;10408919;28;20235;-81
2023/01/16 01:04:30;;;;;;;4.80;2.07;;;7.70;99.90;;;;;;10424801;28;20784;-82
2023/01/16 01:09:33;;;;;;;3.90;2.33;;;7.20;99.90;;;;;;10447198;28;20276;-81
2023/01/16 01:14:36;;;;;;;5.90;2.53;;;;;;;;;;10450004;28;20266;-82
2023/01/16 01:19:38;;;;;;;4.63;2.43;;;6.70;99.90;;;;;;10423491;28;20238;-81
2023/01/16 01:24:41;;;;;;;4.57;2.10;;;7.00;99.90;;;;;;10421047;28;20300;-81
2023/01/16 01:29:44;;;;;;;4.40;2.57;;;6.50;99.90;;;;;;10407548;28;20228;-81
2023/01/16 01:34:46;;;;;;;8.30;3.03;;;7.20;99.90;;;;;;10438997;28;20694;-81
2023/01/16 01:39:50;;;;;;;4.53;2.33;;;7.70;99.90;;;;;;10407879;28;20751;-81
2023/01/16 01:45:00;;;;;;;6.03;3.00;;;7.80;99.90;;;;;;10407272;28;20324;-81
2023/01/16 01:50:18;;;;;;;4.33;2.60;;;8.60;99.90;;;;;;10408208;28;20693;-81
2023/01/16 01:55:22;;;;;;;3.47;2.00;;;8.10;99.90;;;;;;10430568;28;20674;-81
2023/01/16 02:00:26;;;;;;;5.77;2.27;;;7.50;99.90;;;;;;10424074;28;20297;-81
2023/01/16 02:05:34;;;;;;;2.70;1.90;;;6.90;99.90;;;;;;10441820;28;21066;-81
2023/01/16 02:10:48;;;;;;;4.23;2.73;;;6.50;99.90;;;;;;10430936;28;20300;-81
2023/01/16 02:21:24;;;;;;;4.93;2.07;;;6.60;99.90;;;;;;10445831;28;20267;-81
2023/01/16 02:26:27;;;;;;;3.93;2.43;;;6.10;99.90;;;;;;10413938;28;20230;-81
2023/01/16 02:31:49;;;;;;;3.07;2.03;;;5.70;99.90;;;;;;10413023;28;20243;-81
2023/01/16 02:36:52;;;;;;;2.60;1.97;;;5.70;99.90;;;;;;10446023;28;20568;-81
2023/01/16 02:42:06;;;;;;;3.80;2.03;;;4.90;99.90;;;;;;10413324;28;20251;-82
2023/01/16 02:47:21;;;;;;;2.77;1.80;;;4.70;99.90;;;;;;10412482;28;20235;-81
2023/01/16 02:52:35;;;;;;;2.87;1.80;;;4.10;99.90;;;;;;10413802;28;20243;-81
2023/01/16 02:57:43;;;;;;;4.73;2.23;;;4.20;99.90;;;;;;10411768;28;20262;-81
2023/01/16 03:02:46;;;;;;;6.87;2.97;;;5.60;99.90;;;;;;10413788;28;20645;-81
2023/01/16 03:08:40;;;;;;;3.57;1.60;;;5.40;99.90;;;;;;10410686;28;20276;-81
2023/01/16 03:14:02;;;;;;;2.47;1.50;;;4.20;99.90;;;;;;10407404;28;20264;-81
2023/01/16 03:19:45;;;;;;;2.70;1.90;;;3.60;99.90;;;;;;10447316;28;20317;-81
2023/01/16 03:25:11;;;;;;;2.10;1.33;;;3.20;99.90;;;;;;10395698;28;20757;-81
2023/01/16 03:31:05;;;;;;;10.27;2.93;;;2.90;99.90;;;;;;10413831;28;20232;-81
2023/01/16 03:36:29;;;;;;;6.57;1.87;;;2.60;99.90;;;;;;10393250;28;20228;-81
2023/01/16 03:41:35;;;;;;;2.27;1.03;;;2.40;99.90;;;;;;10408418;28;20265;-81
2023/01/16 03:46:43;;;;;;;3.13;1.27;;;2.40;99.90;;;;;;10411533;28;20231;-81
2023/01/16 03:51:51;;;;;;;1.47;1.10;;;2.40;99.90;;;;;;10330304;28;20240;-81
2023/01/16 03:57:06;;;;;;;5.27;1.40;;;2.40;99.90;;;;;;10333907;28;20241;-81
2023/01/16 04:02:12;;;;;;;4.50;1.70;;;2.10;99.90;;;;;;10329692;28;20250;-81
2023/01/16 04:07:34;;;;;;;4.33;2.27;;;1.90;99.90;;;;;;10328527;28;20244;-82
2023/01/16 04:12:43;;;;;;;4.13;1.47;;;1.90;99.90;;;;;;10329635;28;20311;-81
2023/01/16 04:17:46;;;;;;;2.10;1.37;;;1.60;99.90;;;;;;10400890;28;20321;-81
2023/01/16 04:22:49;;;;;;;2.73;1.70;;;1.60;99.90;;;;;;10425814;28;20259;-81
2023/01/16 04:27:52;;;;;;;5.23;2.37;;;1.60;99.90;;;;;;10411075;28;20238;-81
2023/01/16 04:32:54;;;;;;;3.00;2.50;;;1.50;99.90;;;;;;10408908;28;20722;-81
2023/01/16 04:37:57;;;;;;;3.43;2.73;;;1.50;99.90;;;;;;10408628;28;20222;-81
2023/01/16 04:43:00;;;;;;;4.07;3.17;;;1.40;99.90;;;;;;10409322;28;20255;-81
2023/01/16 04:48:02;;;;;;;9.83;5.33;;;1.30;99.90;;;;;;10408832;28;20295;-81
2023/01/16 04:53:05;;;;;;;5.60;4.10;;;1.20;99.90;;;;;;10408064;28;20662;-81
2023/01/16 04:58:08;;;;;;;6.63;4.67;;;1.20;99.90;;;;;;10409427;28;20246;-81
2023/01/16 05:03:10;;;;;;;3.07;2.60;;;1.20;99.90;;;;;;10433621;28;20382;-81
2023/01/16 05:08:16;;;;;;;2.20;2.00;;;1.20;99.90;;;;;;10420387;28;20243;-81
2023/01/16 05:13:19;;;;;;;4.30;2.20;;;1.20;99.90;;;;;;10441049;28;20228;-81
2023/01/16 05:18:23;;;;;;;9.07;4.60;;;1.10;99.90;;;;;;10406765;28;20652;-81
2023/01/16 05:23:26;;;;;;;12.53;6.77;;;1.10;99.90;;;;;;10424881;28;20304;-81
2023/01/16 05:28:28;;;;;;;9.23;5.77;;;1.20;99.90;;;;;;10406427;28;20235;-81
2023/01/16 05:33:31;;;;;;;29.80;14.73;;;1.40;99.90;;;;;;10408407;28;20729;-81
2023/01/16 05:38:33;;;;;;;10.50;5.50;;;1.50;99.90;;;;;;10408306;28;20228;-83
2023/01/16 05:43:36;;;;;;;12.97;7.97;;;2.50;99.90;;;;;;10407996;28;20260;-84
2023/01/16 05:48:39;;;;;;;22.40;11.70;;;4.50;99.90;;;;;;10407187;28;20237;-83
2023/01/16 05:53:41;;;;;;;20.47;11.27;;;4.00;99.90;;;;;;10407057;28;20246;-84
2023/01/16 05:58:44;;;;;;;14.73;9.47;;;3.90;99.90;;;;;;10409773;28;20227;-83
2023/01/16 06:03:47;;;;;;;19.67;9.67;;;4.30;99.90;;;;;;10448847;28;20256;-84
2023/01/16 06:08:49;;;;;;;21.77;8.43;;;5.10;99.90;;;;;;10444044;28;20377;-84
2023/01/16 06:13:52;;;;;;;34.73;14.47;;;4.30;99.90;;;;;;10405787;28;20337;-83
2023/01/16 06:18:55;;;;;;;33.37;16.33;;;3.40;99.90;;;;;;10406297;28;20698;-84
2023/01/16 06:23:58;;;;;;;22.73;11.73;;;2.80;99.90;;;;;;10406689;28;20711;-84
2023/01/16 06:29:00;;;;;;;19.90;10.77;;;2.40;99.90;;;;;;10404386;28;20274;-83
2023/01/16 06:34:05;;;;;;;12.70;7.17;;;2.20;99.90;;;;;;10400953;28;20644;-83
2023/01/16 06:39:10;;;;;;;9.97;6.83;;;2.00;99.90;;;;;;10408378;28;20317;-84
2023/01/16 06:44:13;;;;;;;8.23;4.87;;;1.90;99.90;;;;;;10393161;28;20324;-84
2023/01/16 06:49:15;;;;;;;24.67;9.23;;;1.70;99.90;;;;;;10444549;28;20228;-84
2023/01/16 06:54:18;;;;;;;36.27;14.80;;;1.70;99.90;;;;;;10418255;28;20235;-84
2023/01/16 06:59:21;;;;;;;39.87;17.80;;;1.60;99.90;;;;;;10453053;28;20257;-84
2023/01/16 07:04:23;;;;;;;32.63;16.17;;;1.60;99.90;;;;;;10416424;28;20953;-85
2023/01/16 07:09:29;;;;;;;32.77;14.80;;;1.50;99.90;;;;;;10426904;28;20273;-84
2023/01/16 07:25:21;;;;;;;8.77;4.97;;;1.50;99.90;;;;;;10408314;28;20711;-83
2023/01/16 07:30:24;;;;;;;6.77;4.53;;;1.50;99.90;;;;;;10409986;28;20234;-82
2023/01/16 07:35:26;;;;;;;6.03;4.83;;;1.60;99.90;;;;;;10411702;28;20240;-82
2023/01/16 07:40:29;;;;;;;7.80;5.27;;;1.80;99.90;;;;;;10384417;28;20244;-83
2023/01/16 07:45:32;;;;;;;14.37;7.50;;;3.30;99.90;;;;;;10370551;28;20787;-83
2023/01/16 07:50:35;;;;;;;12.97;7.43;;;2.70;99.90;;;;;;10370021;28;20278;-83
2023/01/16 07:55:37;;;;;;;8.00;4.00;;;2.50;99.90;;;;;;10396786;28;20268;-81
2023/01/16 08:00:40;;;;;;;8.17;5.30;;;3.60;99.90;;;;;;10431233;28;20245;-82
2023/01/16 08:05:45;;;;;;;9.17;5.17;;;5.40;99.90;;;;;;10415776;28;20762;-83
2023/01/16 08:10:52;;;;;;;7.50;4.27;;;4.40;99.90;;;;;;10408966;28;20229;-84
2023/01/16 08:15:54;;;;;;;10.07;6.30;;;4.00;99.90;;;;;;10409508;28;20304;-85
2023/01/16 08:20:57;;;;;;;10.27;6.67;;;3.60;99.90;;;;;;10410592;28;20231;-83
2023/01/16 08:26:00;;;;;;;15.33;8.30;;;3.40;99.90;;;;;;10409290;28;20261;-83
2023/01/16 08:31:07;;;;;;;12.60;6.77;;;3.30;99.90;;;;;;10404509;28;20230;-83
2023/01/16 08:36:11;;;;;;;10.07;5.53;;;3.30;99.90;;;;;;10401892;28;20338;-83
2023/01/16 08:51:59;;;;;;;13.27;9.30;;;4.00;99.90;;;;;;10410320;28;20605;-81
2023/01/16 08:57:02;;;;;;;8.73;5.73;;;4.70;99.90;;;;;;10449772;28;20665;-81
2023/01/16 09:02:08;;;;;;;8.33;6.50;;;5.10;99.90;;;;;;10417420;28;20680;-81
2023/01/16 09:07:10;;;;;;;6.83;5.27;;;5.40;99.90;;;;;;10407915;28;20609;-81
2023/01/16 09:17:34;;;;;;;8.73;5.60;;;5.60;99.90;;;;;;10405916;28;20277;-81
2023/01/16 09:22:37;;;;;;;12.67;7.03;;;5.40;99.90;;;;;;10405749;28;20317;-81
2023/01/16 09:27:39;;;;;;;8.27;5.50;;;5.40;99.90;;;;;;10407043;28;20718;-81
2023/01/16 09:32:45;;;;;;;8.30;4.60;;;5.40;99.90;;;;;;10436889;28;20318;-82
2023/01/16 09:37:49;;;;;;;7.70;5.30;;;5.50;99.90;;;;;;10427663;28;20245;-81
2023/01/16 09:43:37;;;;;;;11.93;5.63;;;5.30;99.90;;;;;;10407053;28;20268;-81
2023/01/16 09:48:52;;;;;;;6.60;5.27;;;5.30;99.90;;;;;;10407313;28;20236;-82
2023/01/16 09:59:46;;;;;;;8.77;4.57;;;5.50;99.90;;;;;;10447988;28;20238;-81
2023/01/16 10:04:50;;;;;;;9.30;5.27;;;5.50;99.90;;;;;;10446817;28;20323;-81
2023/01/16 10:10:30;;;;;;;9.13;5.17;;;5.80;99.90;;;;;;10443263;28;20686;-81
2023/01/16 10:15:46;;;;;;;9.13;5.17;;;6.20;99.90;;;;;;10448943;28;20660;-81
2023/01/16 10:21:07;;;;;;;6.20;4.53;;;6.30;99.90;;;;;;10372651;28;20283;-81
2023/01/16 10:26:44;;;;;;;10.27;4.67;;;6.60;99.90;;;;;;10440938;28;20304;-82
2023/01/16 10:31:51;;;;;;;11.77;4.93;;;6.80;99.90;;;;;;10440019;28;20266;-81
2023/01/16 10:36:58;;;;;;;5.03;3.27;;;6.80;99.90;;;;;;10430594;28;20245;-81
2023/01/16 10:52:56;;;;;;;3.97;3.40;;;7.30;99.90;;;;;;10421414;28;20792;-82
2023/01/16 10:58:04;;;;;;;11.43;3.33;;;7.00;99.90;;;;;;10411673;28;20291;-81
2023/01/16 11:03:34;;;;;;;8.27;3.63;;;7.00;99.90;;;;;;10405633;28;21178;-81
2023/01/16 11:08:37;;;;;;;4.00;2.80;;;6.90;99.90;;;;;;10408289;28;20234;-81
2023/01/16 11:19:21;;;;;;;5.03;3.63;;;7.20;99.90;;;;;;10408403;28;20288;-81
2023/01/16 11:24:31;;;;;;;3.60;2.90;;;6.90;99.90;;;;;;10406482;28;20282;-82
2023/01/16 11:29:38;;;;;;;6.17;2.80;;;6.70;99.90;;;;;;10409133;28;20277;-83
2023/01/16 11:34:46;;;;;;;6.03;2.70;;;6.70;99.90;;;;;;10425141;28;20284;-82
2023/01/16 11:39:52;;;;;;;14.07;7.67;;;6.90;99.90;;;;;;10418940;28;20239;-83
2023/01/16 11:50:36;;;;;;;6.67;3.77;;;7.00;99.90;;;;;;10451326;28;20238;-84
2023/01/16 11:55:49;;;;;;;7.23;4.43;;;8.40;99.90;;;;;;10450970;28;20246;-83
2023/01/16 12:01:24;;;;;;;14.63;7.70;;;8.80;99.90;;;;;;10452418;28;20261;-83
2023/01/16 12:07:13;;;;;;;14.53;5.87;;;9.40;99.90;;;;;;10427604;28;20254;-83
2023/01/16 12:18:14;;;;;;;9.60;5.53;;;8.80;99.90;;;;;;10364274;28;20259;-83
2023/01/16 12:23:37;;;;;;;8.57;4.30;;;9.40;99.90;;;;;;10363782;28;20267;-84
2023/01/16 12:29:03;;;;;;;18.83;5.70;;;9.10;98.10;;;;;;10377666;28;20315;-81
2023/01/16 12:34:33;;;;;;;22.13;4.20;;;9.20;99.90;;;;;;10361294;23;20813;-79
2023/01/16 12:39:48;;;;;;;6.07;3.30;;;9.00;99.90;;;;;;10367391;28;20227;-80
2023/01/16 12:45:11;;;;;;;7.00;3.50;;;9.90;99.90;;;;;;10364035;28;20248;-79
2023/01/16 12:50:29;;;;;;;5.60;3.93;;;8.90;99.80;;;;;;10363919;28;20228;-80
2023/01/16 12:56:25;;;;;;;8.00;4.80;;;8.50;99.90;;;;;;10349085;28;20390;-80
2023/01/16 13:01:35;;;;;;;9.00;4.50;;;8.30;99.90;;;;;;10337130;28;20270;-80
2023/01/16 13:06:50;;;;;;;10.53;4.90;;;8.30;99.90;;;;;;10363748;28;20259;-80
2023/01/16 13:18:05;;;;;;;9.03;5.50;;;9.30;99.90;;;;;;10363653;28;20243;-79
2023/01/16 13:23:23;;;;;;;13.40;6.77;;;9.70;99.90;;;;;;10352634;28;20256;-79
2023/01/16 13:28:43;;;;;;;6.80;4.50;;;9.90;99.90;;;;;;10358837;28;20228;-79
2023/01/16 13:33:51;;;;;;;10.17;4.33;;;10.50;99.90;;;;;;10393859;28;20266;-79
2023/01/16 13:39:21;;;;;;;10.27;4.37;;;10.80;99.90;;;;;;10404875;28;20357;-80
2023/01/16 13:50:16;;;;;;;7.73;5.53;;;11.00;99.90;;;;;;10390795;28;20261;-80
2023/01/16 13:55:35;;;;;;;7.87;3.80;;;11.40;99.90;;;;;;10394395;28;20246;-80
2023/01/16 14:00:38;;;;;;;4.37;3.77;;;11.80;99.90;;;;;;10393081;28;20231;-80
2023/01/16 14:05:44;;;;;;;7.83;5.00;;;12.10;99.90;;;;;;10406441;28;20251;-80
2023/01/16 14:10:59;;;;;;;7.90;4.20;;;12.20;99.90;;;;;;10392964;28;20593;-80
2023/01/16 14:16:31;;;;;;;17.20;8.33;;;12.30;99.90;;;;;;10405252;28;20665;-79
2023/01/16 14:21:37;;;;;;;15.43;6.20;;;12.20;99.90;;;;;;10394941;28;20243;-80
2023/01/16 14:27:12;;;;;;;14.07;6.03;;;12.10;99.90;;;;;;10413445;28;20259;-80
2023/01/16 14:32:18;;;;;;;9.83;5.33;;;11.50;99.90;;;;;;10352483;28;20267;-80
2023/01/16 14:37:25;;;;;;;12.70;5.70;;;11.40;99.90;;;;;;10394021;28;20231;-80
2023/01/16 14:59:44;;;;;;;17.93;9.27;;;11.20;99.90;;;;;;10395148;28;20277;-79
2023/01/16 15:05:04;;;;;;;14.53;8.60;;;10.80;99.90;;;;;;10410407;28;20328;-80
2023/01/16 15:10:31;;;;;;;13.00;8.80;;;10.40;99.90;;;;;;10411087;28;20281;-79
2023/01/16 15:15:34;;;;;;;12.43;9.30;;;10.20;99.90;;;;;;10410906;28;20236;-79
2023/01/16 15:26:04;;;;;;;19.10;9.30;;;10.60;99.90;;;;;;10410986;28;20293;-79
2023/01/16 15:31:20;;;;;;;20.47;11.77;;;9.80;99.90;;;;;;10414331;28;20266;-80
2023/01/16 15:36:26;;;;;;;19.97;11.10;;;9.40;99.90;;;;;;10412366;28;20728;-80
2023/01/16 15:47:29;;;;;;;51.40;35.53;;;9.40;99.90;;;;;;10408924;28;20259;-80
2023/01/16 15:52:39;;;;;;;33.27;15.50;;;;;;;;;;10368648;28;20240;-80
2023/01/16 15:57:47;;;;;;;23.37;11.77;;;9.90;99.90;;;;;;10384370;28;20625;-79
2023/01/16 16:02:50;;;;;;;18.77;10.70;;;10.10;99.90;;;;;;10391152;28;20294;-80
2023/01/16 16:07:54;;;;;;;22.73;12.63;;;9.90;99.90;;;;;;10391341;28;20313;-80
2023/01/16 16:12:57;;;;;;;19.30;10.87;;;9.50;99.90;;;;;;10409069;28;20223;-79
2023/01/16 16:18:02;;;;;;;23.10;11.70;;;9.70;99.90;;;;;;10391885;28;20239;-80
2023/01/16 16:23:20;;;;;;;22.60;13.37;;;9.90;99.90;;;;;;10409307;28;20282;-80
2023/01/16 16:28:49;;;;;;;22.20;11.90;;;10.30;99.90;;;;;;10390913;28;20247;-80
2023/01/16 16:33:54;;;;;;;19.13;10.63;;;9.80;99.90;;;;;;10405968;28;20289;-80
2023/01/16 16:38:57;;;;;;;19.40;10.87;;;9.80;99.90;;;;;;10407525;28;20920;-80
2023/01/16 16:44:07;;;;;;;19.57;11.63;;;9.80;99.90;;;;;;10408575;28;20259;-79
2023/01/16 16:49:16;;;;;;;18.60;10.20;;;10.10;99.90;;;;;;10407540;28;20273;-80
2023/01/16 16:54:25;;;;;;;19.83;11.03;;;10.00;99.90;;;;;;10406928;28;20685;-80
2023/01/16 16:59:32;;;;;;;17.40;9.90;;;10.00;99.90;;;;;;10408680;28;20223;-80
2023/01/16 17:04:35;;;;;;;22.30;13.97;;;9.10;99.90;;;;;;10053393;28;10000469;-80
2023/01/16 17:09:37;;;;;;;19.87;11.03;;;9.10;99.90;;;;;;10419064;28;20861;-80
2023/01/16 17:14:42;;;;;;;14.10;8.77;;;8.90;99.90;;;;;;10408907;28;20296;-80
2023/01/16 17:19:45;;;;;;;18.30;10.80;;;10.20;99.90;;;;;;10386932;28;20249;-80
2023/01/16 17:24:50;;;;;;;18.60;11.03;;;10.70;99.90;;;;;;10404307;28;20290;-80
2023/01/16 17:29:53;;;;;;;24.30;13.93;;;10.40;99.90;;;;;;10403507;28;20231;-80
2023/01/16 17:34:57;;;;;;;15.77;9.53;;;9.90;99.90;;;;;;10388743;28;20690;-80
2023/01/16 17:40:00;;;;;;;25.40;13.30;;;9.40;99.90;;;;;;10403302;28;20650;-80
2023/01/16 17:50:40;;;;;;;15.17;9.93;;;9.50;99.90;;;;;;10405432;28;20745;-80
2023/01/16 17:55:52;;;;;;;11.83;8.20;;;10.10;99.90;;;;;;10401065;28;20606;-80
2023/01/16 18:01:04;;;;;;;17.87;9.33;;;9.90;99.90;;;;;;10379811;28;21107;-80
2023/01/16 18:06:08;;;;;;;20.07;11.70;;;9.90;99.90;;;;;;10406212;28;20251;-80
2023/01/16 18:22:04;;;;;;;27.73;15.90;;;8.40;99.90;;;;;;10403026;28;20266;-80
2023/01/16 18:27:13;;;;;;;15.50;10.00;;;8.60;99.90;;;;;;10378002;28;20314;-80
2023/01/16 18:32:19;;;;;;;16.90;10.53;;;8.80;99.90;;;;;;10400799;28;20482;-80
2023/01/16 18:37:25;;;;;;;20.63;12.73;;;8.80;99.90;;;;;;10398051;28;20305;-80
2023/01/16 19:04:03;;;;;;;16.67;10.77;;;8.90;99.90;;;;;;10424903;28;20700;-80
2023/01/16 19:09:06;;;;;;;17.47;10.47;;;9.30;99.90;;;;;;10402474;28;20247;-79
2023/01/16 19:14:10;;;;;;;24.20;15.70;;;9.70;99.90;;;;;;10391030;28;20648;-80
2023/01/16 19:19:14;;;;;;;22.97;15.37;;;9.80;99.90;;;;;;10392132;28;20227;-79
2023/01/16 19:24:17;;;;;;;19.60;12.97;;;9.60;99.90;;;;;;10407014;28;20240;-80
2023/01/16 19:29:20;;;;;;;28.97;18.07;;;9.50;99.90;;;;;;10405221;28;20227;-79
2023/01/16 19:34:26;;;;;;;15.27;10.40;;;9.20;99.90;;;;;;10409338;28;20812;-79
2023/01/16 19:39:28;;;;;;;30.07;16.83;;;9.60;99.90;;;;;;10389617;28;20676;-80
2023/01/16 19:49:53;;;;;;;33.20;20.63;;;;;;;;;;10398196;28;20231;-79
2023/01/16 19:54:57;;;;;;;40.93;21.63;;;9.70;99.90;;;;;;10398453;28;20243;-79
2023/01/16 19:59:59;;;;;;;27.63;16.03;;;9.50;99.90;;;;;;10393526;28;20223;-79
2023/01/16 20:05:13;;;;;;;20.07;12.60;;;9.30;99.90;;;;;;10408049;28;20263;-80
2023/01/16 20:10:16;;;;;;;23.03;13.37;;;9.50;99.90;;;;;;10407716;28;20270;-80
2023/01/16 20:15:18;;;;;;;24.13;12.93;;;9.40;99.90;;;;;;10399761;28;20604;-80
2023/01/16 20:20:21;;;;;;;24.47;15.77;;;9.20;99.90;;;;;;10407890;28;20281;-80
2023/01/16 20:25:24;;;;;;;18.80;12.30;;;9.20;99.90;;;;;;10413567;28;20258;-81
2023/01/16 20:30:44;;;;;;;18.57;13.07;;;9.10;99.90;;;;;;10410667;28;20843;-80
2023/01/16 20:35:47;;;;;;;20.77;12.50;;;9.30;99.90;;;;;;10412746;28;20730;-80
2023/01/16 20:40:49;;;;;;;21.27;11.30;;;9.40;99.90;;;;;;10401132;28;20243;-80
2023/01/16 20:45:54;;;;;;;23.63;11.30;;;9.90;99.90;;;;;;10387732;28;20783;-80
2023/01/16 20:51:02;;;;;;;14.20;9.57;;;10.10;99.90;;;;;;10430963;28;20288;-80
2023/01/16 20:56:05;;;;;;;16.07;10.33;;;10.50;99.90;;;;;;10406425;28;20774;-80
2023/01/16 21:01:08;;;;;;;18.37;11.63;;;8.70;99.90;;;;;;10429887;28;20261;-80
2023/01/16 21:06:11;;;;;;;27.70;16.53;;;9.00;99.90;;;;;;10408828;28;20315;-80
2023/01/16 21:22:01;;;;;;;23.67;13.33;;;9.40;99.90;;;;;;10407309;28;20298;-81
2023/01/16 21:27:06;;;;;;;21.20;15.03;;;9.10;99.90;;;;;;10408061;28;20261;-80
2023/01/16 21:32:09;;;;;;;24.07;14.90;;;9.40;99.90;;;;;;10404295;28;20293;-80
2023/01/16 21:37:12;;;;;;;24.80;17.43;;;9.10;99.90;;;;;;10390823;28;20266;-80
2023/01/16 21:47:36;;;;;;;23.90;13.67;;;10.00;99.90;;;;;;10405857;28;20661;-80
2023/01/16 21:52:38;;;;;;;32.73;18.40;;;10.00;99.90;;;;;;10408179;28;20288;-80
2023/01/16 21:57:41;;;;;;;27.17;15.10;;;9.90;99.90;;;;;;10406415;28;20251;-80
2023/01/16 22:02:46;;;;;;;15.67;11.03;;;10.00;99.90;;;;;;10389635;28;20242;-80
2023/01/16 22:07:49;;;;;;;17.47;11.07;;;10.70;99.90;;;;;;10388275;28;20332;-81
2023/01/16 22:23:27;;;;;;;21.03;11.90;;;10.80;99.90;;;;;;10386224;28;20244;-80
2023/01/16 22:28:31;;;;;;;26.70;16.87;;;11.00;99.90;;;;;;10374193;28;20282;-80
2023/01/16 22:33:34;;;;;;;19.27;12.30;;;10.30;99.90;;;;;;10391291;28;20289;-80
2023/01/16 22:38:38;;;;;;;19.17;11.50;;;10.20;99.90;;;;;;10413262;28;20622;-79
2023/01/16 22:49:04;;;;;;;23.17;16.17;;;9.80;99.90;;;;;;10387513;28;20300;-80
2023/01/16 22:54:08;;;;;;;12.80;8.57;;;9.60;99.90;;;;;;10393070;28;20292;-81
2023/01/16 22:59:11;;;;;;;17.07;11.43;;;9.90;99.90;;;;;;10367572;28;20677;-80
2023/01/16 23:04:15;;;;;;;14.93;12.17;;;9.80;99.90;;;;;;10372467;28;20236;-80
2023/01/16 23:09:17;;;;;;;27.70;16.87;;;9.90;99.90;;;;;;10407907;28;20282;-80
2023/01/16 23:14:22;;;;;;;23.07;14.60;;;9.90;99.90;;;;;;10412797;28;20215;-80
2023/01/16 23:19:32;;;;;;;17.80;11.90;;;9.70;99.90;;;;;;10412517;28;20619;-80
2023/01/16 23:24:34;;;;;;;13.90;10.43;;;9.90;99.90;;;;;;10409376;28;20239;-80
2023/01/16 23:29:37;;;;;;;19.90;12.97;;;10.10;99.90;;;;;;10412475;28;20251;-80
2023/01/16 23:34:39;;;;;;;13.73;8.80;;;10.20;99.90;;;;;;10412194;28;20255;-80
2023/01/16 23:39:42;;;;;;;16.33;12.63;;;10.50;99.90;;;;;;10409786;28;20707;-80
2023/01/16 23:44:44;;;;;;;15.63;9.70;;;10.40;99.90;;;;;;10412233;28;20239;-81
2023/01/16 23:49:50;;;;;;;25.90;17.37;;;10.60;99.90;;;;;;10411792;28;20267;-81
2023/01/16 23:54:53;;;;;;;16.63;11.00;;;10.40;99.90;;;;;;10405999;28;20231;-80
2023/01/16 23:59:55;;;;;;;14.40;9.40;;;10.70;99.90;;;;;;10386288;28;20250;-80
